sensor_id;sensor_type;location;lat;lon;timestamp;pressure;altitude;pressure_sealevel;temperature;humidity
40954;BME280;26686;50.130;8.710;2023-06-14T00:02:31;99802.69;;;22.13;33.93
40954;BME280;26686;50.130;8.710;2023-06-14T00:07:43;99796.66;;;22.04;34.31
40954;BME280;26686;50.130;8.710;2023-06-14T00:12:45;99801.03;;;21.98;34.74
40954;BME280;26686;50.130;8.710;2023-06-14T00:17:47;99801.44;;;22.02;34.46
40954;BME280;26686;50.130;8.710;2023-06-14T00:22:49;99806.03;;;22.01;34.52
40954;BME280;26686;50.130;8.710;2023-06-14T00:27:52;99807.94;;;22.01;34.32
40954;BME280;26686;50.130;8.710;2023-06-14T00:32:54;99814.16;;;21.95;34.72
40954;BME280;26686;50.130;8.710;2023-06-14T00:37:56;99809.16;;;21.92;34.32
40954;BME280;26686;50.130;8.710;2023-06-14T00:42:57;99806.22;;;21.80;35.02
40954;BME280;26686;50.130;8.710;2023-06-14T00:48:00;99804.38;;;21.80;35.32
40954;BME280;26686;50.130;8.710;2023-06-14T00:53:01;99810.19;;;21.70;35.01
40954;BME280;26686;50.130;8.710;2023-06-14T00:58:03;99809.38;;;21.70;35.18
40954;BME280;26686;50.130;8.710;2023-06-14T01:03:05;99803.94;;;21.57;35.00
40954;BME280;26686;50.130;8.710;2023-06-14T01:08:22;99812.25;;;21.48;35.46
40954;BME280;26686;50.130;8.710;2023-06-14T01:13:33;99817.00;;;21.40;35.78
40954;BME280;26686;50.130;8.710;2023-06-14T01:18:35;99816.97;;;21.33;35.82
40954;BME280;26686;50.130;8.710;2023-06-14T01:23:38;99814.28;;;21.33;35.44
40954;BME280;26686;50.130;8.710;2023-06-14T01:28:39;99820.31;;;21.28;35.86
40954;BME280;26686;50.130;8.710;2023-06-14T01:33:41;99813.81;;;21.16;36.04
40954;BME280;26686;50.130;8.710;2023-06-14T01:38:44;99815.50;;;21.17;36.28
40954;BME280;26686;50.130;8.710;2023-06-14T01:43:47;99810.47;;;21.07;36.60
40954;BME280;26686;50.130;8.710;2023-06-14T01:48:50;99813.81;;;21.09;36.06
40954;BME280;26686;50.130;8.710;2023-06-14T01:53:51;99809.19;;;21.03;36.25
40954;BME280;26686;50.130;8.710;2023-06-14T01:58:53;99808.97;;;20.98;36.62
40954;BME280;26686;50.130;8.710;2023-06-14T02:03:54;99801.25;;;20.95;36.68
40954;BME280;26686;50.130;8.710;2023-06-14T02:08:56;99807.06;;;20.92;36.36
40954;BME280;26686;50.130;8.710;2023-06-14T02:13:58;99811.63;;;20.84;36.64
40954;BME280;26686;50.130;8.710;2023-06-14T02:19:01;99819.50;;;20.79;36.73
40954;BME280;26686;50.130;8.710;2023-06-14T02:24:03;99814.50;;;20.76;36.90
40954;BME280;26686;50.130;8.710;2023-06-14T02:29:05;99819.34;;;20.53;37.62
40954;BME280;26686;50.130;8.710;2023-06-14T02:34:07;99821.38;;;20.44;37.79
40954;BME280;26686;50.130;8.710;2023-06-14T02:39:11;99823.03;;;20.45;37.63
40954;BME280;26686;50.130;8.710;2023-06-14T02:44:13;99829.69;;;20.42;37.61
40954;BME280;26686;50.130;8.710;2023-06-14T02:49:14;99825.50;;;20.40;37.57
40954;BME280;26686;50.130;8.710;2023-06-14T02:54:16;99828.38;;;20.38;37.62
40954;BME280;26686;50.130;8.710;2023-06-14T02:59:18;99833.56;;;20.33;37.87
40954;BME280;26686;50.130;8.710;2023-06-14T03:04:20;99827.81;;;20.14;38.20
40954;BME280;26686;50.130;8.710;2023-06-14T03:09:22;99838.16;;;20.04;38.32
40954;BME280;26686;50.130;8.710;2023-06-14T03:14:24;99845.97;;;19.99;38.42
40954;BME280;26686;50.130;8.710;2023-06-14T03:19:26;99844.84;;;19.87;39.02
40954;BME280;26686;50.130;8.710;2023-06-14T03:24:27;99859.84;;;19.89;38.55
40954;BME280;26686;50.130;8.710;2023-06-14T03:29:29;99872.09;;;19.92;39.15
40954;BME280;26686;50.130;8.710;2023-06-14T03:34:30;99862.06;;;19.86;39.43
40954;BME280;26686;50.130;8.710;2023-06-14T03:39:32;99874.44;;;19.37;40.07
40954;BME280;26686;50.130;8.710;2023-06-14T03:44:34;99875.03;;;19.54;39.96
40954;BME280;26686;50.130;8.710;2023-06-14T03:49:35;99877.88;;;19.67;39.67
40954;BME280;26686;50.130;8.710;2023-06-14T03:54:38;99892.19;;;19.68;40.01
40954;BME280;26686;50.130;8.710;2023-06-14T03:59:42;99892.28;;;19.74;39.82
40954;BME280;26686;50.130;8.710;2023-06-14T04:04:44;99899.50;;;19.74;39.98
40954;BME280;26686;50.130;8.710;2023-06-14T04:09:46;99906.41;;;19.55;40.36
40954;BME280;26686;50.130;8.710;2023-06-14T04:14:48;99912.44;;;19.57;40.10
40954;BME280;26686;50.130;8.710;2023-06-14T04:19:49;99907.03;;;19.57;40.04
40954;BME280;26686;50.130;8.710;2023-06-14T04:24:51;99915.25;;;19.49;39.77
40954;BME280;26686;50.130;8.710;2023-06-14T04:30:06;99923.56;;;19.47;40.43
40954;BME280;26686;50.130;8.710;2023-06-14T04:35:13;99929.78;;;19.48;40.65
40954;BME280;26686;50.130;8.710;2023-06-14T04:40:16;99932.38;;;19.41;40.87
40954;BME280;26686;50.130;8.710;2023-06-14T04:45:17;99934.53;;;19.46;41.02
40954;BME280;26686;50.130;8.710;2023-06-14T04:50:19;99933.03;;;19.43;40.79
40954;BME280;26686;50.130;8.710;2023-06-14T04:55:21;99935.38;;;19.31;41.71
40954;BME280;26686;50.130;8.710;2023-06-14T05:00:23;99954.44;;;19.45;41.28
40954;BME280;26686;50.130;8.710;2023-06-14T05:05:24;99951.25;;;19.56;41.59
40954;BME280;26686;50.130;8.710;2023-06-14T05:10:26;99946.50;;;19.58;41.34
40954;BME280;26686;50.130;8.710;2023-06-14T05:15:27;99949.84;;;19.60;41.07
40954;BME280;26686;50.130;8.710;2023-06-14T05:20:30;99953.66;;;19.66;41.68
40954;BME280;26686;50.130;8.710;2023-06-14T05:25:32;99962.88;;;19.71;41.72
40954;BME280;26686;50.130;8.710;2023-06-14T05:30:34;99964.81;;;19.77;41.23
40954;BME280;26686;50.130;8.710;2023-06-14T05:35:35;99962.56;;;19.66;42.13
40954;BME280;26686;50.130;8.710;2023-06-14T05:40:37;99978.34;;;19.77;42.26
40954;BME280;26686;50.130;8.710;2023-06-14T05:45:38;99968.06;;;19.88;41.97
40954;BME280;26686;50.130;8.710;2023-06-14T05:50:40;99973.59;;;20.01;41.68
40954;BME280;26686;50.130;8.710;2023-06-14T05:55:42;99973.84;;;20.06;41.33
40954;BME280;26686;50.130;8.710;2023-06-14T06:00:45;99989.03;;;20.07;41.79
40954;BME280;26686;50.130;8.710;2023-06-14T06:05:47;99986.97;;;20.09;41.50
40954;BME280;26686;50.130;8.710;2023-06-14T06:10:48;100002.16;;;20.10;41.47
40954;BME280;26686;50.130;8.710;2023-06-14T06:15:50;100005.44;;;20.06;41.68
40954;BME280;26686;50.130;8.710;2023-06-14T06:20:51;100009.75;;;20.22;41.74
40954;BME280;26686;50.130;8.710;2023-06-14T06:25:54;100010.16;;;20.40;41.92
40954;BME280;26686;50.130;8.710;2023-06-14T06:30:56;100002.72;;;20.49;41.48
40954;BME280;26686;50.130;8.710;2023-06-14T06:35:58;100009.88;;;20.57;41.67
40954;BME280;26686;50.130;8.710;2023-06-14T06:40:59;100014.63;;;20.55;41.27
40954;BME280;26686;50.130;8.710;2023-06-14T06:46:01;100012.97;;;20.75;41.07
40954;BME280;26686;50.130;8.710;2023-06-14T06:51:04;100017.16;;;20.78;40.99
40954;BME280;26686;50.130;8.710;2023-06-14T06:56:07;100016.81;;;20.88;40.76
40954;BME280;26686;50.130;8.710;2023-06-14T07:01:09;100023.13;;;21.01;40.96
40954;BME280;26686;50.130;8.710;2023-06-14T07:06:11;100008.16;;;20.99;40.36
40954;BME280;26686;50.130;8.710;2023-06-14T07:11:12;100009.50;;;21.16;39.20
40954;BME280;26686;50.130;8.710;2023-06-14T07:16:16;100018.09;;;21.27;38.78
40954;BME280;26686;50.130;8.710;2023-06-14T07:21:18;100028.00;;;21.48;39.02
40954;BME280;26686;50.130;8.710;2023-06-14T07:26:20;100013.72;;;21.61;39.03
40954;BME280;26686;50.130;8.710;2023-06-14T07:31:22;100019.00;;;21.76;37.88
40954;BME280;26686;50.130;8.710;2023-06-14T07:36:23;100025.06;;;21.84;37.64
40954;BME280;26686;50.130;8.710;2023-06-14T07:41:25;100020.72;;;21.97;37.90
40954;BME280;26686;50.130;8.710;2023-06-14T07:46:27;100015.97;;;22.12;37.33
40954;BME280;26686;50.130;8.710;2023-06-14T07:51:30;100032.69;;;22.22;37.71
40954;BME280;26686;50.130;8.710;2023-06-14T07:56:31;100020.44;;;22.40;37.77
40954;BME280;26686;50.130;8.710;2023-06-14T08:01:33;100000.63;;;22.53;37.64
40954;BME280;26686;50.130;8.710;2023-06-14T08:06:35;100013.56;;;22.71;37.90
40954;BME280;26686;50.130;8.710;2023-06-14T08:11:38;100023.56;;;22.84;37.21
40954;BME280;26686;50.130;8.710;2023-06-14T08:16:39;100015.84;;;22.94;36.94
40954;BME280;26686;50.130;8.710;2023-06-14T08:21:41;100011.66;;;22.98;36.11
40954;BME280;26686;50.130;8.710;2023-06-14T08:26:42;100017.72;;;22.93;36.25
40954;BME280;26686;50.130;8.710;2023-06-14T08:31:44;100012.91;;;23.02;35.98
40954;BME280;26686;50.130;8.710;2023-06-14T08:36:46;100024.38;;;23.18;35.91
40954;BME280;26686;50.130;8.710;2023-06-14T08:41:47;100019.16;;;23.16;35.93
40954;BME280;26686;50.130;8.710;2023-06-14T08:46:55;100021.81;;;23.43;35.66
40954;BME280;26686;50.130;8.710;2023-06-14T08:52:00;100019.66;;;23.58;35.33
40954;BME280;26686;50.130;8.710;2023-06-14T08:57:05;100016.34;;;23.56;35.17
40954;BME280;26686;50.130;8.710;2023-06-14T09:02:08;100030.47;;;23.85;34.48
40954;BME280;26686;50.130;8.710;2023-06-14T09:07:14;100034.38;;;23.96;34.04
40954;BME280;26686;50.130;8.710;2023-06-14T09:12:16;100036.25;;;23.95;33.64
40954;BME280;26686;50.130;8.710;2023-06-14T09:17:18;100033.84;;;24.19;33.47
40954;BME280;26686;50.130;8.710;2023-06-14T09:22:20;100045.66;;;24.38;33.16
40954;BME280;26686;50.130;8.710;2023-06-14T09:27:25;100049.22;;;24.32;33.79
40954;BME280;26686;50.130;8.710;2023-06-14T09:32:27;100045.75;;;24.18;33.68
40954;BME280;26686;50.130;8.710;2023-06-14T09:37:30;100035.75;;;24.44;33.22
40954;BME280;26686;50.130;8.710;2023-06-14T09:42:32;100049.59;;;24.74;33.07
40954;BME280;26686;50.130;8.710;2023-06-14T09:47:37;100042.03;;;25.01;32.25
40954;BME280;26686;50.130;8.710;2023-06-14T09:52:52;100045.50;;;25.34;31.74
40954;BME280;26686;50.130;8.710;2023-06-14T09:57:54;100058.59;;;25.44;31.85
40954;BME280;26686;50.130;8.710;2023-06-14T10:03:05;100040.44;;;25.37;31.43
40954;BME280;26686;50.130;8.710;2023-06-14T10:08:09;100037.25;;;25.59;31.96
40954;BME280;26686;50.130;8.710;2023-06-14T10:13:13;100024.06;;;25.74;31.16
40954;BME280;26686;50.130;8.710;2023-06-14T10:18:35;100035.28;;;26.03;30.81
40954;BME280;26686;50.130;8.710;2023-06-14T10:23:42;100024.91;;;26.36;29.93
40954;BME280;26686;50.130;8.710;2023-06-14T10:28:55;100016.41;;;26.44;29.48
40954;BME280;26686;50.130;8.710;2023-06-14T10:33:58;100029.78;;;26.34;30.39
40954;BME280;26686;50.130;8.710;2023-06-14T10:39:04;100021.28;;;26.54;29.01
40954;BME280;26686;50.130;8.710;2023-06-14T10:49:17;100028.66;;;26.65;29.74
40954;BME280;26686;50.130;8.710;2023-06-14T10:54:22;100023.69;;;26.62;30.48
40954;BME280;26686;50.130;8.710;2023-06-14T10:59:24;100031.38;;;26.53;30.08
40954;BME280;26686;50.130;8.710;2023-06-14T11:04:44;100026.09;;;26.28;30.03
40954;BME280;26686;50.130;8.710;2023-06-14T11:10:04;100027.25;;;26.20;30.07
40954;BME280;26686;50.130;8.710;2023-06-14T11:15:06;100034.00;;;26.18;29.72
40954;BME280;26686;50.130;8.710;2023-06-14T11:20:09;100036.38;;;26.14;29.94
40954;BME280;26686;50.130;8.710;2023-06-14T11:25:12;100036.78;;;26.29;29.49
40954;BME280;26686;50.130;8.710;2023-06-14T11:30:18;100028.28;;;26.50;28.93
40954;BME280;26686;50.130;8.710;2023-06-14T11:35:22;100033.97;;;26.36;29.00
40954;BME280;26686;50.130;8.710;2023-06-14T11:40:27;100029.47;;;26.11;29.04
40954;BME280;26686;50.130;8.710;2023-06-14T11:45:29;100028.72;;;26.04;28.98
40954;BME280;26686;50.130;8.710;2023-06-14T11:50:31;100038.00;;;26.03;29.31
40954;BME280;26686;50.130;8.710;2023-06-14T11:55:37;100029.63;;;26.17;28.66
40954;BME280;26686;50.130;8.710;2023-06-14T12:00:40;100026.16;;;26.09;29.14
40954;BME280;26686;50.130;8.710;2023-06-14T12:05:43;100027.56;;;26.00;28.75
40954;BME280;26686;50.130;8.710;2023-06-14T12:10:45;100030.56;;;25.92;29.45
40954;BME280;26686;50.130;8.710;2023-06-14T12:15:54;100031.75;;;25.96;29.70
40954;BME280;26686;50.130;8.710;2023-06-14T12:20:58;100034.84;;;26.18;29.41
40954;BME280;26686;50.130;8.710;2023-06-14T12:26:03;100025.53;;;26.50;28.19
40954;BME280;26686;50.130;8.710;2023-06-14T12:31:06;100017.97;;;26.52;28.33
40954;BME280;26686;50.130;8.710;2023-06-14T12:36:09;100017.50;;;26.55;28.06
40954;BME280;26686;50.130;8.710;2023-06-14T12:41:11;100019.41;;;26.66;28.31
40954;BME280;26686;50.130;8.710;2023-06-14T12:46:13;100021.13;;;26.91;28.02
40954;BME280;26686;50.130;8.710;2023-06-14T12:51:14;100021.94;;;27.03;27.64
40954;BME280;26686;50.130;8.710;2023-06-14T12:56:16;100022.75;;;27.04;27.42
40954;BME280;26686;50.130;8.710;2023-06-14T13:01:18;100030.59;;;26.76;28.01
40954;BME280;26686;50.130;8.710;2023-06-14T13:06:21;100034.56;;;26.50;28.05
40954;BME280;26686;50.130;8.710;2023-06-14T13:11:23;100034.53;;;26.38;27.84
40954;BME280;26686;50.130;8.710;2023-06-14T13:16:25;100022.47;;;26.58;28.28
40954;BME280;26686;50.130;8.710;2023-06-14T13:21:26;100025.06;;;26.53;27.39
40954;BME280;26686;50.130;8.710;2023-06-14T13:26:28;100020.47;;;26.65;27.83
40954;BME280;26686;50.130;8.710;2023-06-14T13:31:29;100024.75;;;26.61;26.81
40954;BME280;26686;50.130;8.710;2023-06-14T13:36:31;100019.13;;;26.32;27.62
40954;BME280;26686;50.130;8.710;2023-06-14T13:41:33;100004.16;;;26.23;28.68
40954;BME280;26686;50.130;8.710;2023-06-14T13:46:36;100018.72;;;26.28;28.51
40954;BME280;26686;50.130;8.710;2023-06-14T13:51:55;100026.97;;;26.10;28.62
40954;BME280;26686;50.130;8.710;2023-06-14T13:56:56;100005.28;;;26.03;28.56
40954;BME280;26686;50.130;8.710;2023-06-14T14:02:16;100005.75;;;26.00;29.43
40954;BME280;26686;50.130;8.710;2023-06-14T14:07:17;99996.75;;;26.11;29.36
40954;BME280;26686;50.130;8.710;2023-06-14T14:12:19;99999.34;;;26.06;29.14
40954;BME280;26686;50.130;8.710;2023-06-14T14:17:38;100013.38;;;26.22;29.50
40954;BME280;26686;50.130;8.710;2023-06-14T14:22:58;100003.13;;;26.05;29.26
40954;BME280;26686;50.130;8.710;2023-06-14T14:28:02;99999.97;;;25.90;29.01
40954;BME280;26686;50.130;8.710;2023-06-14T14:33:03;100010.53;;;25.98;29.69
40954;BME280;26686;50.130;8.710;2023-06-14T14:38:05;100007.00;;;25.98;30.08
40954;BME280;26686;50.130;8.710;2023-06-14T14:43:08;100005.28;;;26.03;29.54
40954;BME280;26686;50.130;8.710;2023-06-14T14:48:09;100000.41;;;26.05;28.99
40954;BME280;26686;50.130;8.710;2023-06-14T14:53:11;99991.44;;;25.98;28.23
40954;BME280;26686;50.130;8.710;2023-06-14T14:58:15;100002.91;;;26.07;28.00
40954;BME280;26686;50.130;8.710;2023-06-14T15:03:20;99996.75;;;26.11;28.79
40954;BME280;26686;50.130;8.710;2023-06-14T15:08:24;99989.78;;;25.97;27.84
40954;BME280;26686;50.130;8.710;2023-06-14T15:13:25;99994.06;;;25.93;28.95
40954;BME280;26686;50.130;8.710;2023-06-14T15:18:27;99986.81;;;25.87;28.41
40954;BME280;26686;50.130;8.710;2023-06-14T15:23:28;99991.19;;;25.88;28.52
40954;BME280;26686;50.130;8.710;2023-06-14T15:28:30;99970.00;;;25.71;28.50
40954;BME280;26686;50.130;8.710;2023-06-14T15:33:35;99995.91;;;25.81;29.66
40954;BME280;26686;50.130;8.710;2023-06-14T15:38:38;99993.91;;;25.88;30.36
40954;BME280;26686;50.130;8.710;2023-06-14T15:43:40;100003.66;;;25.96;29.81
40954;BME280;26686;50.130;8.710;2023-06-14T15:48:42;100001.63;;;25.91;29.28
40954;BME280;26686;50.130;8.710;2023-06-14T15:53:44;99994.53;;;25.90;29.15
40954;BME280;26686;50.130;8.710;2023-06-14T15:58:45;99988.78;;;25.80;29.47
40954;BME280;26686;50.130;8.710;2023-06-14T16:03:47;99974.50;;;25.66;29.55
40954;BME280;26686;50.130;8.710;2023-06-14T16:08:49;99980.22;;;25.76;30.02
40954;BME280;26686;50.130;8.710;2023-06-14T16:13:53;99967.84;;;25.62;30.07
40954;BME280;26686;50.130;8.710;2023-06-14T16:18:56;99983.63;;;25.71;30.01
40954;BME280;26686;50.130;8.710;2023-06-14T16:23:58;99979.56;;;25.81;29.97
40954;BME280;26686;50.130;8.710;2023-06-14T16:28:59;99979.91;;;25.84;30.19
40954;BME280;26686;50.130;8.710;2023-06-14T16:34:01;99985.59;;;25.83;29.80
40954;BME280;26686;50.130;8.710;2023-06-14T16:39:03;99978.81;;;25.73;29.70
40954;BME280;26686;50.130;8.710;2023-06-14T16:44:04;99976.38;;;25.65;29.63
40954;BME280;26686;50.130;8.710;2023-06-14T16:49:06;99982.06;;;25.64;29.81
40954;BME280;26686;50.130;8.710;2023-06-14T16:54:08;99986.53;;;25.58;29.75
40954;BME280;26686;50.130;8.710;2023-06-14T16:59:09;99990.19;;;25.52;30.14
40954;BME280;26686;50.130;8.710;2023-06-14T17:04:11;99990.34;;;25.57;30.37
40954;BME280;26686;50.130;8.710;2023-06-14T17:09:13;99994.81;;;25.51;30.58
40954;BME280;26686;50.130;8.710;2023-06-14T17:14:15;99987.31;;;25.47;30.54
40954;BME280;26686;50.130;8.710;2023-06-14T17:19:16;99997.69;;;25.38;30.24
40954;BME280;26686;50.130;8.710;2023-06-14T17:24:18;100009.41;;;25.38;30.63
40954;BME280;26686;50.130;8.710;2023-06-14T17:29:26;100009.78;;;25.42;30.32
40954;BME280;26686;50.130;8.710;2023-06-14T17:34:28;100018.19;;;25.40;30.02
40954;BME280;26686;50.130;8.710;2023-06-14T17:39:29;100019.47;;;25.38;29.93
40954;BME280;26686;50.130;8.710;2023-06-14T17:44:31;100022.09;;;25.26;30.25
40954;BME280;26686;50.130;8.710;2023-06-14T17:49:33;100024.66;;;25.21;30.10
40954;BME280;26686;50.130;8.710;2023-06-14T17:54:35;100026.25;;;25.10;30.58
40954;BME280;26686;50.130;8.710;2023-06-14T17:59:37;100027.75;;;25.06;30.48
40954;BME280;26686;50.130;8.710;2023-06-14T18:04:38;100033.66;;;25.03;30.81
40954;BME280;26686;50.130;8.710;2023-06-14T18:09:43;100042.75;;;24.90;30.77
40954;BME280;26686;50.130;8.710;2023-06-14T18:14:45;100042.81;;;24.83;31.03
40954;BME280;26686;50.130;8.710;2023-06-14T18:19:46;100044.88;;;24.63;31.35
40954;BME280;26686;50.130;8.710;2023-06-14T18:24:48;100056.81;;;24.55;31.72
40954;BME280;26686;50.130;8.710;2023-06-14T18:29:49;100048.91;;;24.47;31.88
40954;BME280;26686;50.130;8.710;2023-06-14T18:34:51;100058.97;;;24.46;32.21
40954;BME280;26686;50.130;8.710;2023-06-14T18:39:53;100055.25;;;24.41;31.89
40954;BME280;26686;50.130;8.710;2023-06-14T18:44:55;100083.59;;;24.26;32.29
40954;BME280;26686;50.130;8.710;2023-06-14T18:49:56;100066.91;;;24.16;32.20
40954;BME280;26686;50.130;8.710;2023-06-14T18:54:58;100074.53;;;24.00;32.41
40954;BME280;26686;50.130;8.710;2023-06-14T18:59:59;100070.34;;;23.91;32.62
40954;BME280;26686;50.130;8.710;2023-06-14T19:05:01;100073.94;;;23.78;32.73
40954;BME280;26686;50.130;8.710;2023-06-14T19:10:06;100086.06;;;23.76;33.09
40954;BME280;26686;50.130;8.710;2023-06-14T19:15:08;100087.13;;;23.75;33.41
40954;BME280;26686;50.130;8.710;2023-06-14T19:20:10;100094.91;;;23.64;33.59
40954;BME280;26686;50.130;8.710;2023-06-14T19:25:13;100097.22;;;23.54;33.79
40954;BME280;26686;50.130;8.710;2023-06-14T19:30:15;100101.81;;;23.54;33.65
40954;BME280;26686;50.130;8.710;2023-06-14T19:35:17;100111.22;;;23.51;33.56
40954;BME280;26686;50.130;8.710;2023-06-14T19:40:21;100110.19;;;23.45;33.70
40954;BME280;26686;50.130;8.710;2023-06-14T19:45:23;100122.31;;;23.43;33.78
40954;BME280;26686;50.130;8.710;2023-06-14T19:50:24;100142.59;;;23.34;33.92
40954;BME280;26686;50.130;8.710;2023-06-14T19:55:26;100133.41;;;23.21;34.27
40954;BME280;26686;50.130;8.710;2023-06-14T20:00:28;100154.91;;;23.16;34.36
40954;BME280;26686;50.130;8.710;2023-06-14T20:05:29;100137.38;;;23.12;34.74
40954;BME280;26686;50.130;8.710;2023-06-14T20:10:31;100152.84;;;23.18;34.43
40954;BME280;26686;50.130;8.710;2023-06-14T20:15:33;100153.84;;;23.04;34.59
40954;BME280;26686;50.130;8.710;2023-06-14T20:20:34;100159.47;;;22.89;34.76
40954;BME280;26686;50.130;8.710;2023-06-14T20:25:36;100167.59;;;22.82;35.35
40954;BME280;26686;50.130;8.710;2023-06-14T20:30:38;100174.06;;;22.74;35.53
40954;BME280;26686;50.130;8.710;2023-06-14T20:35:39;100171.34;;;22.19;36.13
40954;BME280;26686;50.130;8.710;2023-06-14T20:40:41;100164.47;;;22.23;36.41
40954;BME280;26686;50.130;8.710;2023-06-14T20:45:43;100170.72;;;22.17;36.69
40954;BME280;26686;50.130;8.710;2023-06-14T20:50:44;100168.81;;;22.18;36.96
40954;BME280;26686;50.130;8.710;2023-06-14T20:55:46;100166.72;;;22.13;37.09
40954;BME280;26686;50.130;8.710;2023-06-14T21:00:47;100182.91;;;22.00;37.15
40954;BME280;26686;50.130;8.710;2023-06-14T21:05:50;100184.19;;;22.04;37.89
40954;BME280;26686;50.130;8.710;2023-06-14T21:10:52;100182.13;;;22.06;37.82
40954;BME280;26686;50.130;8.710;2023-06-14T21:15:57;100190.06;;;22.14;37.69
40954;BME280;26686;50.130;8.710;2023-06-14T21:20:59;100191.28;;;22.05;37.91
40954;BME280;26686;50.130;8.710;2023-06-14T21:26:01;100188.81;;;22.10;37.81
40954;BME280;26686;50.130;8.710;2023-06-14T21:31:07;100192.28;;;21.97;37.75
40954;BME280;26686;50.130;8.710;2023-06-14T21:36:09;100198.28;;;21.93;38.63
40954;BME280;26686;50.130;8.710;2023-06-14T21:41:11;100200.72;;;21.81;38.39
40954;BME280;26686;50.130;8.710;2023-06-14T21:46:13;100206.00;;;21.61;39.16
40954;BME280;26686;50.130;8.710;2023-06-14T21:51:14;100211.25;;;21.69;38.80
40954;BME280;26686;50.130;8.710;2023-06-14T21:56:16;100198.38;;;21.71;38.90
40954;BME280;26686;50.130;8.710;2023-06-14T22:01:19;100200.19;;;21.64;39.04
40954;BME280;26686;50.130;8.710;2023-06-14T22:06:21;100214.38;;;21.66;39.48
40954;BME280;26686;50.130;8.710;2023-06-14T22:11:23;100211.56;;;21.31;40.12
40954;BME280;26686;50.130;8.710;2023-06-14T22:16:27;100220.00;;;21.43;40.10
40954;BME280;26686;50.130;8.710;2023-06-14T22:21:33;100215.41;;;21.43;40.13
40954;BME280;26686;50.130;8.710;2023-06-14T22:26:42;100221.81;;;21.35;40.51
40954;BME280;26686;50.130;8.710;2023-06-14T22:31:49;100222.41;;;21.31;40.24
40954;BME280;26686;50.130;8.710;2023-06-14T22:36:51;100217.78;;;21.25;40.74
40954;BME280;26686;50.130;8.710;2023-06-14T22:41:55;100221.09;;;21.27;40.48
40954;BME280;26686;50.130;8.710;2023-06-14T22:46:57;100220.28;;;21.26;41.08
40954;BME280;26686;50.130;8.710;2023-06-14T22:52:01;100225.41;;;21.21;40.97
40954;BME280;26686;50.130;8.710;2023-06-14T22:57:05;100231.41;;;21.16;41.30
40954;BME280;26686;50.130;8.710;2023-06-14T23:02:09;100218.94;;;21.15;41.26
40954;BME280;26686;50.130;8.710;2023-06-14T23:07:16;100218.28;;;21.13;41.39
40954;BME280;26686;50.130;8.710;2023-06-14T23:12:23;100215.75;;;21.12;41.51
40954;BME280;26686;50.130;8.710;2023-06-14T23:17:26;100218.03;;;21.08;41.65
40954;BME280;26686;50.130;8.710;2023-06-14T23:22:33;100217.13;;;21.01;41.88
40954;BME280;26686;50.130;8.710;2023-06-14T23:27:37;100217.50;;;20.98;41.89
40954;BME280;26686;50.130;8.710;2023-06-14T23:32:39;100221.63;;;20.94;42.07
40954;BME280;26686;50.130;8.710;2023-06-14T23:37:41;100221.63;;;20.94;42.36
40954;BME280;26686;50.130;8.710;2023-06-14T23:42:43;100222.00;;;20.91;42.12
40954;BME280;26686;50.130;8.710;2023-06-14T23:47:44;100222.34;;;20.81;42.21
40954;BME280;26686;50.130;8.710;2023-06-14T23:52:46;100215.81;;;20.75;42.79
40954;BME280;26686;50.130;8.710;2023-06-14T23:57:47;100224.31;;;20.72;42.66
